createdAt,value
2018-08-23T00:01:19.538Z,10.47
2018-08-23T00:03:47.724Z,9.80
2018-08-23T00:06:15.803Z,9.77
2018-08-23T00:08:48.976Z,10.00
2018-08-23T00:11:21.981Z,10.33
2018-08-23T00:13:56.785Z,10.43
2018-08-23T00:16:29.998Z,10.37
2018-08-23T00:18:58.206Z,10.27
2018-08-23T00:21:26.382Z,10.77
2018-08-23T00:24:06.889Z,10.07
2018-08-23T00:26:35.795Z,11.07
2018-08-23T00:29:04.891Z,10.27
2018-08-23T00:31:37.675Z,11.00
2018-08-23T00:34:06.105Z,11.40
2018-08-23T00:36:35.811Z,10.70
2018-08-23T00:39:05.925Z,11.03
2018-08-23T00:41:34.057Z,11.63
2018-08-23T00:44:02.262Z,11.23
2018-08-23T00:46:30.414Z,11.43
2018-08-23T00:48:58.540Z,11.33
2018-08-23T00:51:26.698Z,11.30
2018-08-23T00:54:00.397Z,11.60
2018-08-23T00:56:28.532Z,12.03
2018-08-23T00:59:03.547Z,11.97
2018-08-23T01:01:32.557Z,12.07
2018-08-23T01:04:00.787Z,11.63
2018-08-23T01:06:43.236Z,12.07
2018-08-23T01:09:12.430Z,11.23
2018-08-23T01:11:40.562Z,11.73
2018-08-23T01:14:09.086Z,11.23
2018-08-23T01:16:37.233Z,11.43
2018-08-23T01:19:10.843Z,11.00
2018-08-23T01:21:45.177Z,11.63
2018-08-23T01:24:13.302Z,10.60
2018-08-23T01:26:41.413Z,10.87
2018-08-23T01:29:31.409Z,11.17
2018-08-23T01:32:08.537Z,11.37
2018-08-23T01:34:36.754Z,11.40
2018-08-23T01:37:04.905Z,11.30
2018-08-23T01:39:33.658Z,11.07
2018-08-23T01:42:01.824Z,12.07
2018-08-23T01:44:38.982Z,11.27
2018-08-23T01:47:07.109Z,11.57
2018-08-23T01:49:35.266Z,11.20
2018-08-23T01:52:03.396Z,12.13
2018-08-23T01:54:31.533Z,11.33
2018-08-23T01:56:59.674Z,11.37
2018-08-23T01:59:27.835Z,12.13
2018-08-23T02:01:55.979Z,12.43
2018-08-23T02:04:24.110Z,11.83
2018-08-23T02:06:52.253Z,12.07
2018-08-23T02:09:20.375Z,11.60
2018-08-23T02:11:48.504Z,11.50
2018-08-23T02:14:16.642Z,11.83
2018-08-23T02:16:52.006Z,12.13
2018-08-23T02:19:20.703Z,12.07
2018-08-23T02:21:48.837Z,10.97
2018-08-23T02:24:17.558Z,11.80
2018-08-23T02:26:45.700Z,11.43
2018-08-23T02:29:14.795Z,10.53
2018-08-23T02:31:42.937Z,11.90
2018-08-23T02:34:11.602Z,12.70
2018-08-23T02:36:39.742Z,12.40
2018-08-23T02:39:09.150Z,11.03
2018-08-23T02:41:37.281Z,13.70
2018-08-23T02:44:05.397Z,13.57
2018-08-23T02:46:33.673Z,12.80
2018-08-23T02:49:01.826Z,12.43
2018-08-23T02:51:41.241Z,12.80
2018-08-23T02:54:11.735Z,12.70
2018-08-23T02:56:39.870Z,11.70
2018-08-23T02:59:08.090Z,12.20
2018-08-23T03:01:40.726Z,11.73
2018-08-23T03:04:12.211Z,11.50
2018-08-23T03:06:48.892Z,12.37
2018-08-23T03:09:20.640Z,12.20
2018-08-23T03:11:49.825Z,12.23
2018-08-23T03:14:19.027Z,11.93
2018-08-23T03:17:49.214Z,13.03
2018-08-23T03:20:18.165Z,12.67
2018-08-23T03:22:47.749Z,11.90
2018-08-23T03:25:17.070Z,13.07
2018-08-23T03:27:45.236Z,13.33
2018-08-23T03:30:15.570Z,13.10
2018-08-23T03:32:43.694Z,13.10
2018-08-23T03:35:11.846Z,12.17
2018-08-23T03:37:39.953Z,12.80
2018-08-23T03:40:09.602Z,12.03
2018-08-23T03:42:37.737Z,13.23
2018-08-23T03:45:06.830Z,12.50
2018-08-23T03:47:40.217Z,12.10
2018-08-23T03:50:09.348Z,13.67
2018-08-23T03:52:38.863Z,13.70
2018-08-23T03:55:08.782Z,12.30
2018-08-23T03:57:42.489Z,12.17
2018-08-23T04:00:10.622Z,12.07
2018-08-23T04:02:38.745Z,12.87
2018-08-23T04:05:13.228Z,11.67
2018-08-23T04:07:42.433Z,11.53
2018-08-23T04:10:10.569Z,12.20
2018-08-23T04:12:40.270Z,12.10
2018-08-23T04:15:19.043Z,11.27
2018-08-23T04:17:47.932Z,11.60
2018-08-23T04:20:16.182Z,11.73
2018-08-23T04:22:44.378Z,13.07
2018-08-23T04:25:12.538Z,11.80
2018-08-23T04:27:40.678Z,12.53
2018-08-23T04:30:09.309Z,11.63
2018-08-23T04:32:50.014Z,11.73
2018-08-23T04:35:22.255Z,11.63
2018-08-23T04:37:50.946Z,11.27
2018-08-23T04:40:19.062Z,11.83
2018-08-23T04:42:47.298Z,11.87
2018-08-23T04:45:20.746Z,11.07
2018-08-23T04:48:08.141Z,11.33
2018-08-23T04:50:37.105Z,11.40
2018-08-23T04:53:05.246Z,11.60
2018-08-23T04:55:33.392Z,12.10
2018-08-23T04:58:02.272Z,11.50
2018-08-23T05:00:30.922Z,11.40
2018-08-23T05:02:59.139Z,10.67
2018-08-23T05:05:27.263Z,11.53
2018-08-23T05:07:55.418Z,12.17
2018-08-23T05:10:23.558Z,11.47
2018-08-23T05:12:51.698Z,12.13
2018-08-23T05:15:19.827Z,12.50
2018-08-23T05:17:47.961Z,12.23
2018-08-23T05:20:16.093Z,13.03
2018-08-23T05:22:51.327Z,12.10
2018-08-23T05:25:21.758Z,11.93
2018-08-23T05:28:07.890Z,12.37
2018-08-23T05:30:36.023Z,11.90
2018-08-23T05:33:11.801Z,12.67
2018-08-23T05:35:39.937Z,12.50
2018-08-23T05:38:08.761Z,12.53
2018-08-23T05:40:42.620Z,12.83
2018-08-23T05:43:11.042Z,12.43
2018-08-23T05:45:44.556Z,11.70
2018-08-23T05:48:18.855Z,12.97
2018-08-23T05:50:46.966Z,12.07
2018-08-23T05:53:16.247Z,11.67
2018-08-23T05:55:45.331Z,11.03
2018-08-23T05:58:15.154Z,10.40
2018-08-23T06:00:43.387Z,9.80
2018-08-23T06:03:36.421Z,10.17
2018-08-23T06:06:04.540Z,9.80
2018-08-23T06:08:32.707Z,9.67
2018-08-23T06:11:05.642Z,9.60
2018-08-23T06:13:33.778Z,9.33
2018-08-23T06:16:02.371Z,9.23
2018-08-23T06:18:30.490Z,9.13
2018-08-23T06:20:58.623Z,8.77
2018-08-23T06:23:40.746Z,8.63
2018-08-23T06:26:08.869Z,8.53
2018-08-23T06:28:37.034Z,8.20
2018-08-23T06:31:05.166Z,8.80
2018-08-23T06:33:39.623Z,8.10
2018-08-23T06:36:08.850Z,8.53
2018-08-23T06:38:37.754Z,7.67
2018-08-23T06:41:07.141Z,8.37
2018-08-23T06:43:35.569Z,8.20
2018-08-23T06:46:04.227Z,9.10
2018-08-23T06:48:32.590Z,7.93
2018-08-23T06:51:01.711Z,10.37
2018-08-23T06:53:39.794Z,11.00
2018-08-23T06:56:08.042Z,12.37
2018-08-23T06:58:36.218Z,11.57
2018-08-23T07:01:08.596Z,11.53
2018-08-23T07:03:52.658Z,11.50
2018-08-23T07:06:21.254Z,11.13
2018-08-23T07:08:49.372Z,11.00
2018-08-23T07:11:21.390Z,11.67
2018-08-23T07:13:57.119Z,11.30
2018-08-23T07:16:25.581Z,11.30
2018-08-23T07:18:53.697Z,10.80
2018-08-23T07:21:21.909Z,11.17
2018-08-23T07:23:50.034Z,11.30
2018-08-23T07:26:18.217Z,11.53
2018-08-23T07:28:46.339Z,11.43
2018-08-23T07:31:14.497Z,10.87
2018-08-23T07:33:43.853Z,10.77
2018-08-23T07:36:25.664Z,10.27
2018-08-23T07:38:53.785Z,11.17
2018-08-23T07:41:21.919Z,10.43
2018-08-23T07:43:50.051Z,10.73
2018-08-23T07:46:19.033Z,10.20
2018-08-23T07:48:47.155Z,10.33
2018-08-23T07:51:19.617Z,10.47
2018-08-23T07:53:47.631Z,10.10
2018-08-23T07:56:23.310Z,10.47
2018-08-23T07:58:55.606Z,9.80
2018-08-23T08:01:27.272Z,9.67
2018-08-23T08:03:56.047Z,9.77
2018-08-23T08:06:25.354Z,11.43
2018-08-23T08:08:55.066Z,10.07
2018-08-23T08:11:23.204Z,10.03
2018-08-23T08:13:56.886Z,9.63
2018-08-23T08:16:29.279Z,10.53
2018-08-23T08:18:57.442Z,12.17
2018-08-23T08:21:25.578Z,10.60
2018-08-23T08:23:58.945Z,10.57
2018-08-23T08:26:28.565Z,9.67
2018-08-23T08:28:56.682Z,10.43
2018-08-23T08:31:24.829Z,9.83
2018-08-23T08:33:56.346Z,8.57
2018-08-23T08:36:25.684Z,9.17
2018-08-23T08:38:53.818Z,8.40
2018-08-23T08:41:21.950Z,7.70
2018-08-23T08:43:50.080Z,8.13
2018-08-23T08:46:18.214Z,8.53
2018-08-23T08:48:47.355Z,8.37
2018-08-23T08:51:23.491Z,7.40
2018-08-23T08:53:52.189Z,8.57
2018-08-23T08:56:23.095Z,7.00
2018-08-23T08:58:51.341Z,7.83
2018-08-23T09:01:20.065Z,8.20
2018-08-23T09:03:48.194Z,7.60
2018-08-23T09:06:30.617Z,7.93
2018-08-23T09:08:58.866Z,7.87
2018-08-23T09:11:28.273Z,7.50
2018-08-23T09:14:00.992Z,7.50
2018-08-23T09:16:29.119Z,6.93
2018-08-23T09:18:59.946Z,7.03
2018-08-23T09:21:28.196Z,7.57
2018-08-23T09:23:56.339Z,7.47
2018-08-23T09:26:29.926Z,7.17
2018-08-23T09:28:58.058Z,8.20
2018-08-23T09:31:26.187Z,7.80
2018-08-23T09:33:54.309Z,7.57
2018-08-23T09:36:22.473Z,6.70
2018-08-23T09:38:50.671Z,6.80
2018-08-23T09:41:18.835Z,7.30
2018-08-23T09:43:47.002Z,7.47
2018-08-23T09:46:15.130Z,7.77
2018-08-23T09:48:43.359Z,7.60
2018-08-23T09:51:16.949Z,7.03
2018-08-23T09:53:45.078Z,6.63
2018-08-23T09:56:19.254Z,7.40
2018-08-23T09:58:49.491Z,7.33
2018-08-23T10:02:23.662Z,7.63
2018-08-23T10:04:54.934Z,6.93
2018-08-23T10:07:29.550Z,6.80
2018-08-23T10:10:03.354Z,6.70
2018-08-23T10:12:36.854Z,5.90
2018-08-23T10:15:10.342Z,5.87
2018-08-23T10:17:43.860Z,6.50
2018-08-23T10:20:17.514Z,7.10
2018-08-23T10:23:49.943Z,6.43
2018-08-23T10:26:29.952Z,7.10
2018-08-23T10:28:58.235Z,6.37
2018-08-23T10:31:26.655Z,6.17
2018-08-23T10:33:54.783Z,6.43
2018-08-23T10:36:22.914Z,6.30
2018-08-23T10:38:51.046Z,6.60
2018-08-23T10:41:19.170Z,6.63
2018-08-23T10:43:48.390Z,6.53
2018-08-23T10:46:16.502Z,6.00
2018-08-23T10:48:44.646Z,6.20
2018-08-23T10:51:12.780Z,6.43
2018-08-23T10:53:40.903Z,6.20
2018-08-23T10:56:09.034Z,6.53
2018-08-23T10:58:37.174Z,6.50
2018-08-23T11:01:05.327Z,6.33
2018-08-23T11:03:33.449Z,6.40
2018-08-23T11:06:01.571Z,6.53
2018-08-23T11:08:35.539Z,6.90
2018-08-23T11:11:08.966Z,6.27
2018-08-23T11:13:42.365Z,6.67
2018-08-23T11:16:16.046Z,6.53
2018-08-23T11:18:49.495Z,6.30
2018-08-23T11:21:18.202Z,6.23
2018-08-23T11:23:46.885Z,6.53
2018-08-23T11:26:20.386Z,6.50
2018-08-23T11:28:49.010Z,6.80
2018-08-23T11:31:22.603Z,7.00
2018-08-23T11:33:50.825Z,6.80
2018-08-23T11:36:18.938Z,6.60
2018-08-23T11:38:47.057Z,6.47
2018-08-23T11:41:15.178Z,8.60
2018-08-23T11:43:43.326Z,8.33
2018-08-23T11:46:12.270Z,7.53
2018-08-23T11:48:40.815Z,7.37
2018-08-23T11:51:08.914Z,7.43
2018-08-23T11:53:37.204Z,7.50
2018-08-23T11:56:05.479Z,6.87
2018-08-23T11:58:33.620Z,7.17
2018-08-23T12:01:07.157Z,7.40
2018-08-23T12:03:35.265Z,6.97
2018-08-23T12:06:03.492Z,6.50
2018-08-23T12:08:31.622Z,5.70
2018-08-23T12:10:59.745Z,5.47
2018-08-23T12:13:27.867Z,4.67
2018-08-23T12:15:56.095Z,5.00
2018-08-23T12:18:24.194Z,3.70
2018-08-23T12:20:52.319Z,4.70
2018-08-23T12:23:20.451Z,5.73
2018-08-23T12:25:48.626Z,4.70
2018-08-23T12:28:22.271Z,3.77
2018-08-23T12:30:50.415Z,3.13
2018-08-23T12:33:18.534Z,2.93
2018-08-23T12:35:46.682Z,2.50
2018-08-23T12:38:21.045Z,2.83
2018-08-23T12:40:54.599Z,3.00
2018-08-23T12:43:28.139Z,3.60
2018-08-23T12:46:00.523Z,3.20
2018-08-23T12:48:28.994Z,3.30
2018-08-23T12:50:57.479Z,3.73
2018-08-23T12:53:27.527Z,3.20
2018-08-23T12:55:55.639Z,3.50
2018-08-23T12:58:23.758Z,5.00
2018-08-23T13:00:51.904Z,4.13
2018-08-23T13:03:20.035Z,4.47
2018-08-23T13:05:48.147Z,3.90
2018-08-23T13:08:16.316Z,3.83
2018-08-23T13:10:44.378Z,4.60
2018-08-23T13:13:12.502Z,4.60
2018-08-23T13:15:40.626Z,4.23
2018-08-23T13:18:08.762Z,4.37
2018-08-23T13:20:36.882Z,4.57
2018-08-23T13:23:05.010Z,5.07
2018-08-23T13:25:33.124Z,5.10
2018-08-23T13:28:01.243Z,6.00
2018-08-23T13:30:29.374Z,9.17
2018-08-23T13:32:57.498Z,11.33
2018-08-23T13:35:25.853Z,10.67
2018-08-23T13:37:53.971Z,7.73
2018-08-23T13:40:22.121Z,7.73
2018-08-23T13:42:50.298Z,8.20
2018-08-23T13:45:18.487Z,9.37
2018-08-23T13:47:46.613Z,8.20
2018-08-23T13:50:14.731Z,6.90
2018-08-23T13:52:42.909Z,8.23
2018-08-23T13:55:10.990Z,10.53
2018-08-23T13:57:39.134Z,10.53
2018-08-23T14:00:07.279Z,8.83
2018-08-23T14:02:35.425Z,9.23
2018-08-23T14:05:03.526Z,9.20
2018-08-23T14:07:31.713Z,8.47
2018-08-23T14:09:59.829Z,9.97
2018-08-23T14:12:27.962Z,10.30
2018-08-23T14:14:57.795Z,8.47
2018-08-23T14:17:26.586Z,9.10
2018-08-23T14:19:54.927Z,7.77
2018-08-23T14:22:23.082Z,10.95
2018-08-23T14:24:51.221Z,7.50
2018-08-23T14:27:19.349Z,7.77
2018-08-23T14:29:47.455Z,11.10
2018-08-23T14:32:15.612Z,9.47
2018-08-23T14:34:43.745Z,8.33
2018-08-23T14:37:11.867Z,10.33
2018-08-23T14:39:40.014Z,8.77
2018-08-23T14:42:08.162Z,9.03
2018-08-23T14:44:36.295Z,9.77
2018-08-23T14:47:09.946Z,12.17
2018-08-23T14:49:38.061Z,10.83
2018-08-23T14:52:06.854Z,12.00
2018-08-23T14:54:41.698Z,8.53
2018-08-23T14:57:15.229Z,11.40
2018-08-23T14:59:43.879Z,11.40
2018-08-23T15:02:12.013Z,10.10
2018-08-23T15:04:44.378Z,9.63
2018-08-23T15:07:12.505Z,9.33
2018-08-23T15:09:40.916Z,12.33
2018-08-23T15:12:09.172Z,9.40
2018-08-23T15:14:37.286Z,8.93
2018-08-23T15:17:05.993Z,8.83
2018-08-23T15:19:34.149Z,9.27
2018-08-23T15:22:02.272Z,8.77
2018-08-23T15:24:31.495Z,7.67
2018-08-23T15:26:59.685Z,9.17
2018-08-23T15:29:27.790Z,9.17
2018-08-23T15:31:55.914Z,8.90
2018-08-23T15:34:24.043Z,8.00
2018-08-23T15:36:52.158Z,8.47
2018-08-23T15:39:20.337Z,8.37
2018-08-23T15:41:48.406Z,7.60
2018-08-23T15:44:16.522Z,7.80
2018-08-23T15:46:45.881Z,7.67
2018-08-23T15:49:14.234Z,7.73
2018-08-23T15:51:42.793Z,7.70
2018-08-23T15:54:11.189Z,7.70
2018-08-23T15:56:40.049Z,7.50
2018-08-23T15:59:08.187Z,7.40
2018-08-23T16:01:36.305Z,7.03
2018-08-23T16:04:04.457Z,7.23
2018-08-23T16:06:32.570Z,6.50
2018-08-23T16:09:00.690Z,6.60
2018-08-23T16:11:28.799Z,6.40
2018-08-23T16:13:56.922Z,6.40
2018-08-23T16:16:30.554Z,6.00
2018-08-23T16:19:04.219Z,7.37
2018-08-23T16:21:44.807Z,5.60
2018-08-23T16:24:12.923Z,6.13
2018-08-23T16:26:46.242Z,6.50
2018-08-23T16:29:14.353Z,6.07
2018-08-23T16:31:42.466Z,5.70
2018-08-23T16:34:10.633Z,5.67
2018-08-23T16:36:38.757Z,6.10
2018-08-23T16:39:07.654Z,6.50
2018-08-23T16:41:35.776Z,5.97
2018-08-23T16:44:03.886Z,6.33
2018-08-23T16:46:32.010Z,6.90
2018-08-23T16:49:00.139Z,6.17
2018-08-23T16:51:28.263Z,6.10
2018-08-23T16:53:56.377Z,6.10
2018-08-23T16:56:24.497Z,6.67
2018-08-23T16:58:52.649Z,5.90
2018-08-23T17:01:20.779Z,5.90
2018-08-23T17:03:52.927Z,5.93
2018-08-23T17:06:21.718Z,6.50
2018-08-23T17:13:44.638Z,6.90
2018-08-23T17:16:18.261Z,6.07
2018-08-23T17:18:46.401Z,6.63
2018-08-23T17:21:14.545Z,6.80
2018-08-23T17:23:42.690Z,6.60
2018-08-23T17:26:10.807Z,5.90
2018-08-23T17:28:38.918Z,6.73
2018-08-23T17:31:07.046Z,6.73
2018-08-23T17:33:35.171Z,6.70
2018-08-23T17:36:03.338Z,6.60
2018-08-23T17:38:31.934Z,6.40
2018-08-23T17:40:59.974Z,7.37
2018-08-23T17:43:28.509Z,6.80
2018-08-23T17:45:56.647Z,7.23
2018-08-23T17:48:24.859Z,7.37
2018-08-23T17:50:53.042Z,6.47
2018-08-23T17:53:21.260Z,7.13
2018-08-23T17:55:49.376Z,6.57
2018-08-23T17:58:17.506Z,6.80
2018-08-23T18:00:45.633Z,7.33
2018-08-23T18:03:13.753Z,7.70
2018-08-23T18:05:41.878Z,6.73
2018-08-23T18:08:09.998Z,7.17
2018-08-23T18:10:38.159Z,7.17
2018-08-23T18:13:06.357Z,7.40
2018-08-23T18:15:39.758Z,7.50
2018-08-23T18:18:07.888Z,7.97
2018-08-23T18:20:36.076Z,8.23
2018-08-23T18:23:04.129Z,7.97
2018-08-23T18:25:32.489Z,8.03
2018-08-23T18:28:00.615Z,7.33
2018-08-23T18:30:28.731Z,8.77
2018-08-23T18:32:56.915Z,7.80
2018-08-23T18:35:25.017Z,9.03
2018-08-23T18:37:53.142Z,7.93
2018-08-23T18:40:21.260Z,8.00
2018-08-23T18:42:49.368Z,7.57
2018-08-23T18:45:17.478Z,8.30
2018-08-23T18:47:45.634Z,8.23
2018-08-23T18:50:13.753Z,8.60
2018-08-23T18:52:41.884Z,8.63
2018-08-23T18:55:09.994Z,8.40
2018-08-23T18:57:38.149Z,9.23
2018-08-23T19:00:06.796Z,8.73
2018-08-23T19:02:34.747Z,8.10
2018-08-23T19:05:02.856Z,9.20
2018-08-23T19:07:36.530Z,8.40
2018-08-23T19:10:04.788Z,7.97
2018-08-23T19:12:33.096Z,9.80
2018-08-23T19:15:01.215Z,8.13
2018-08-23T19:17:31.118Z,9.13
2018-08-23T19:19:59.274Z,8.80
2018-08-23T19:22:27.410Z,9.57
2018-08-23T19:24:55.518Z,8.40
2018-08-23T19:27:23.634Z,9.00
2018-08-23T19:29:51.749Z,9.33
2018-08-23T19:32:19.878Z,9.70
2018-08-23T19:34:48.058Z,9.43
2018-08-23T19:37:16.191Z,9.47
2018-08-23T19:39:44.304Z,8.70
2018-08-23T19:42:12.446Z,9.07
2018-08-23T19:44:45.962Z,8.83
2018-08-23T19:47:19.718Z,8.77
2018-08-23T19:49:53.967Z,8.93
2018-08-23T19:52:22.351Z,9.10
2018-08-23T19:54:55.575Z,9.77
2018-08-23T19:57:23.731Z,9.47
2018-08-23T19:59:51.865Z,8.33
2018-08-23T20:02:20.030Z,9.43
2018-08-23T20:04:48.147Z,8.60
2018-08-23T20:07:16.314Z,9.13
2018-08-23T20:09:44.433Z,8.93
2018-08-23T20:12:12.593Z,9.00
2018-08-23T20:14:40.718Z,8.33
2018-08-23T20:17:08.856Z,9.03
2018-08-23T20:19:36.992Z,8.57
2018-08-23T20:22:06.828Z,9.17
2018-08-23T20:24:35.425Z,8.93
2018-08-23T20:27:03.559Z,9.33
2018-08-23T20:29:31.690Z,8.93
2018-08-23T20:31:59.863Z,8.83
2018-08-23T20:34:28.077Z,8.73
2018-08-23T20:36:56.211Z,8.53
2018-08-23T20:39:24.540Z,9.40
2018-08-23T20:41:52.504Z,8.23
2018-08-23T20:44:20.666Z,9.23
2018-08-23T20:46:48.840Z,8.60
2018-08-23T20:49:16.912Z,8.57
2018-08-23T20:51:45.029Z,8.63
2018-08-23T20:54:13.155Z,8.47
2018-08-23T20:56:41.291Z,8.63
2018-08-23T20:59:09.427Z,8.90
2018-08-23T21:01:37.545Z,7.83
2018-08-23T21:04:05.702Z,8.83
2018-08-23T21:06:33.830Z,8.13
2018-08-23T21:09:01.950Z,8.03
2018-08-23T21:11:30.076Z,8.40
2018-08-23T21:13:58.206Z,8.83
2018-08-23T21:16:26.319Z,8.93
2018-08-23T21:18:54.479Z,8.77
2018-08-23T21:21:22.602Z,9.50
2018-08-23T21:23:50.721Z,9.23
2018-08-23T21:26:18.866Z,9.13
2018-08-23T21:28:47.026Z,7.90
2018-08-23T21:31:15.186Z,8.50
2018-08-23T21:33:43.298Z,8.60
2018-08-23T21:36:11.443Z,8.83
2018-08-23T21:38:39.555Z,8.90
2018-08-23T21:41:07.686Z,8.80
2018-08-23T21:43:35.827Z,8.90
2018-08-23T21:46:03.966Z,7.93
2018-08-23T21:48:32.091Z,8.00
2018-08-23T21:51:00.213Z,8.10
2018-08-23T21:53:28.350Z,9.00
2018-08-23T21:55:56.474Z,8.40
2018-08-23T21:58:24.593Z,8.40
2018-08-23T22:00:55.603Z,8.70
2018-08-23T22:03:23.846Z,8.73
2018-08-23T22:05:51.974Z,8.50
2018-08-23T22:08:20.100Z,9.07
2018-08-23T22:10:48.225Z,8.17
2018-08-23T22:13:16.379Z,8.47
2018-08-23T22:15:46.985Z,9.60
2018-08-23T22:18:15.514Z,10.47
2018-08-23T22:20:43.840Z,9.87
2018-08-23T22:23:12.214Z,8.73
2018-08-23T22:25:40.818Z,10.03
2018-08-23T22:28:09.337Z,9.10
2018-08-23T22:30:38.186Z,9.40
2018-08-23T22:33:06.630Z,9.33
2018-08-23T22:35:34.780Z,8.27
2018-08-23T22:38:02.905Z,8.20
2018-08-23T22:40:31.026Z,9.00
2018-08-23T22:42:59.150Z,8.00
2018-08-23T22:45:27.302Z,8.27
2018-08-23T22:47:55.543Z,8.10
2018-08-23T22:50:23.662Z,8.70
2018-08-23T22:52:51.793Z,9.00
2018-08-23T22:55:19.951Z,7.80
2018-08-23T22:57:48.082Z,8.03
2018-08-23T23:00:16.238Z,8.50
2018-08-23T23:02:44.385Z,8.27
2018-08-23T23:05:12.521Z,8.53
2018-08-23T23:07:40.634Z,9.10
2018-08-23T23:10:08.754Z,9.13
2018-08-23T23:12:36.902Z,9.03
2018-08-23T23:15:06.945Z,8.97
2018-08-23T23:17:35.342Z,8.90
2018-08-23T23:20:03.478Z,8.97
2018-08-23T23:22:31.619Z,8.60
2018-08-23T23:25:00.641Z,8.17
2018-08-23T23:27:29.135Z,8.37
2018-08-23T23:29:57.629Z,7.73
2018-08-23T23:32:25.774Z,9.17
2018-08-23T23:34:54.188Z,7.90
2018-08-23T23:37:22.575Z,7.70
2018-08-23T23:39:50.697Z,8.50
2018-08-23T23:42:18.830Z,8.20
2018-08-23T23:44:47.060Z,7.33
2018-08-23T23:47:15.106Z,7.80
2018-08-23T23:49:43.226Z,8.47
2018-08-23T23:52:11.358Z,8.27
2018-08-23T23:54:39.478Z,8.20
2018-08-23T23:57:07.599Z,7.93
2018-08-23T23:59:35.743Z,8.93
